sensor_id;sensor_type;location;lat;lon;timestamp;pressure;altitude;pressure_sealevel;temperature;humidity
67109;BME280;54027;50.786;7.058;2022-09-06T00:00:33;101122.41;;;18.51;53.66
67109;BME280;54027;50.786;7.058;2022-09-06T00:02:59;101133.00;;;18.50;54.75
67109;BME280;54027;50.786;7.058;2022-09-06T00:05:25;101137.41;;;18.49;54.20
67109;BME280;54027;50.786;7.058;2022-09-06T00:07:51;101132.09;;;18.51;54.13
67109;BME280;54027;50.786;7.058;2022-09-06T00:10:16;101126.81;;;18.51;53.21
67109;BME280;54027;50.786;7.058;2022-09-06T00:12:41;101128.50;;;18.52;54.24
67109;BME280;54027;50.786;7.058;2022-09-06T00:15:07;101137.34;;;18.51;54.68
67109;BME280;54027;50.786;7.058;2022-09-06T00:17:32;101138.97;;;18.53;53.94
67109;BME280;54027;50.786;7.058;2022-09-06T00:19:58;101146.63;;;18.58;53.03
67109;BME280;54027;50.786;7.058;2022-09-06T00:22:23;101159.94;;;18.55;53.99
67109;BME280;54027;50.786;7.058;2022-09-06T00:24:48;101192.38;;;18.55;58.62
67109;BME280;54027;50.786;7.058;2022-09-06T00:27:14;101221.59;;;18.49;61.21
67109;BME280;54027;50.786;7.058;2022-09-06T00:29:39;101219.72;;;18.51;60.66
67109;BME280;54027;50.786;7.058;2022-09-06T00:32:05;101239.25;;;18.47;63.14
67109;BME280;54027;50.786;7.058;2022-09-06T00:34:30;101239.09;;;18.50;61.63
67109;BME280;54027;50.786;7.058;2022-09-06T00:36:55;101243.06;;;18.59;60.26
67109;BME280;54027;50.786;7.058;2022-09-06T00:39:21;101244.84;;;18.58;60.27
67109;BME280;54027;50.786;7.058;2022-09-06T00:41:46;101256.28;;;18.57;61.34
67109;BME280;54027;50.786;7.058;2022-09-06T00:44:11;101271.38;;;18.54;59.62
67109;BME280;54027;50.786;7.058;2022-09-06T00:46:37;101257.28;;;18.55;60.60
67109;BME280;54027;50.786;7.058;2022-09-06T00:49:11;101254.50;;;18.58;60.26
67109;BME280;54027;50.786;7.058;2022-09-06T00:51:39;101256.66;;;18.50;61.64
67109;BME280;54027;50.786;7.058;2022-09-06T00:54:06;101259.28;;;18.50;62.87
67109;BME280;54027;50.786;7.058;2022-09-06T00:56:32;101248.16;;;18.43;64.16
67109;BME280;54027;50.786;7.058;2022-09-06T00:58:59;101238.50;;;18.44;66.22
67109;BME280;54027;50.786;7.058;2022-09-06T01:01:25;101232.47;;;18.42;69.04
67109;BME280;54027;50.786;7.058;2022-09-06T01:03:50;101236.06;;;18.39;67.34
67109;BME280;54027;50.786;7.058;2022-09-06T01:13:47;101227.91;;;18.45;67.27
67109;BME280;54027;50.786;7.058;2022-09-06T01:28:59;101228.50;;;18.52;68.08
67109;BME280;54027;50.786;7.058;2022-09-06T01:31:32;101227.84;;;18.47;69.44
67109;BME280;54027;50.786;7.058;2022-09-06T01:36:31;101225.72;;;18.55;68.79
67109;BME280;54027;50.786;7.058;2022-09-06T01:38:58;101210.34;;;18.46;68.45
67109;BME280;54027;50.786;7.058;2022-09-06T01:41:23;101211.94;;;18.50;68.48
67109;BME280;54027;50.786;7.058;2022-09-06T01:43:48;101212.69;;;18.52;67.85
67109;BME280;54027;50.786;7.058;2022-09-06T01:48:58;101210.16;;;18.50;68.27
67109;BME280;54027;50.786;7.058;2022-09-06T01:57:44;101178.66;;;18.49;67.13
67109;BME280;54027;50.786;7.058;2022-09-06T01:59:40;101190.88;;;18.50;67.39
67109;BME280;54027;50.786;7.058;2022-09-06T02:02:59;101200.63;;;18.48;67.39
67109;BME280;54027;50.786;7.058;2022-09-06T02:07:53;101206.88;;;18.45;69.68
67109;BME280;54027;50.786;7.058;2022-09-06T02:10:26;101206.81;;;18.47;68.81
67109;BME280;54027;50.786;7.058;2022-09-06T02:12:53;101207.66;;;18.47;69.13
67109;BME280;54027;50.786;7.058;2022-09-06T02:15:31;101185.94;;;18.42;69.13
67109;BME280;54027;50.786;7.058;2022-09-06T02:18:03;101167.47;;;18.44;68.11
67109;BME280;54027;50.786;7.058;2022-09-06T02:20:30;101164.84;;;18.44;68.05
67109;BME280;54027;50.786;7.058;2022-09-06T02:22:58;101169.19;;;18.45;68.20
67109;BME280;54027;50.786;7.058;2022-09-06T02:25:31;101190.22;;;18.45;69.08
67109;BME280;54027;50.786;7.058;2022-09-06T02:27:58;101218.44;;;18.41;69.49
67109;BME280;54027;50.786;7.058;2022-09-06T02:30:23;101242.13;;;18.41;69.46
67109;BME280;54027;50.786;7.058;2022-09-06T02:32:50;101228.97;;;18.41;69.07
67109;BME280;54027;50.786;7.058;2022-09-06T02:35:17;101228.03;;;18.42;69.43
67109;BME280;54027;50.786;7.058;2022-09-06T02:37:42;101235.13;;;18.40;69.79
67109;BME280;54027;50.786;7.058;2022-09-06T02:40:08;101231.66;;;18.40;69.16
67109;BME280;54027;50.786;7.058;2022-09-06T02:42:34;101223.75;;;18.40;69.54
67109;BME280;54027;50.786;7.058;2022-09-06T02:44:59;101218.63;;;18.37;70.43
67109;BME280;54027;50.786;7.058;2022-09-06T02:47:24;101212.31;;;18.41;70.11
67109;BME280;54027;50.786;7.058;2022-09-06T02:49:50;101222.06;;;18.39;70.38
67109;BME280;54027;50.786;7.058;2022-09-06T02:52:15;101216.09;;;18.35;70.37
67109;BME280;54027;50.786;7.058;2022-09-06T02:54:41;101210.13;;;18.32;70.83
67109;BME280;54027;50.786;7.058;2022-09-06T02:57:06;101199.53;;;18.33;70.36
67109;BME280;54027;50.786;7.058;2022-09-06T02:59:32;101197.69;;;18.35;70.33
67109;BME280;54027;50.786;7.058;2022-09-06T03:01:57;101186.31;;;18.35;70.07
67109;BME280;54027;50.786;7.058;2022-09-06T03:04:22;101186.44;;;18.32;70.91
67109;BME280;54027;50.786;7.058;2022-09-06T03:06:48;101188.22;;;18.31;70.57
67109;BME280;54027;50.786;7.058;2022-09-06T03:09:13;101179.59;;;18.28;70.90
67109;BME280;54027;50.786;7.058;2022-09-06T03:11:39;101178.06;;;18.24;71.05
67109;BME280;54027;50.786;7.058;2022-09-06T03:14:04;101183.25;;;18.25;71.20
67109;BME280;54027;50.786;7.058;2022-09-06T03:16:29;101188.63;;;18.22;71.62
67109;BME280;54027;50.786;7.058;2022-09-06T03:18:55;101179.97;;;18.20;71.40
67109;BME280;54027;50.786;7.058;2022-09-06T03:21:20;101178.34;;;18.18;71.66
67109;BME280;54027;50.786;7.058;2022-09-06T03:23:45;101179.25;;;18.16;71.88
67109;BME280;54027;50.786;7.058;2022-09-06T03:26:11;101172.13;;;18.18;71.64
67109;BME280;54027;50.786;7.058;2022-09-06T03:28:36;101171.38;;;18.16;71.41
67109;BME280;54027;50.786;7.058;2022-09-06T03:31:02;101165.38;;;18.13;70.75
67109;BME280;54027;50.786;7.058;2022-09-06T03:33:27;101162.03;;;18.09;69.82
67109;BME280;54027;50.786;7.058;2022-09-06T03:35:54;101167.31;;;18.09;70.39
67109;BME280;54027;50.786;7.058;2022-09-06T03:38:20;101171.88;;;18.06;70.16
67109;BME280;54027;50.786;7.058;2022-09-06T03:40:46;101163.25;;;18.02;70.24
67109;BME280;54027;50.786;7.058;2022-09-06T03:43:11;101164.13;;;18.03;70.30
67109;BME280;54027;50.786;7.058;2022-09-06T03:45:37;101162.63;;;17.97;70.36
67109;BME280;54027;50.786;7.058;2022-09-06T03:48:02;101162.69;;;17.96;70.45
67109;BME280;54027;50.786;7.058;2022-09-06T03:50:27;101163.59;;;17.95;70.16
67109;BME280;54027;50.786;7.058;2022-09-06T03:52:53;101161.78;;;17.97;69.78
67109;BME280;54027;50.786;7.058;2022-09-06T03:55:18;101166.94;;;17.98;69.87
67109;BME280;54027;50.786;7.058;2022-09-06T03:57:43;101168.16;;;17.91;70.08
67109;BME280;54027;50.786;7.058;2022-09-06T04:00:09;101155.22;;;17.87;70.24
67109;BME280;54027;50.786;7.058;2022-09-06T04:02:34;101160.69;;;17.82;70.07
67109;BME280;54027;50.786;7.058;2022-09-06T04:04:59;101151.03;;;17.83;70.39
67109;BME280;54027;50.786;7.058;2022-09-06T04:07:25;101158.19;;;17.79;70.43
67109;BME280;54027;50.786;7.058;2022-09-06T04:09:50;101151.19;;;17.80;70.57
67109;BME280;54027;50.786;7.058;2022-09-06T04:12:15;101152.00;;;17.80;70.68
67109;BME280;54027;50.786;7.058;2022-09-06T04:14:40;101139.00;;;17.77;70.62
67109;BME280;54027;50.786;7.058;2022-09-06T04:17:06;101143.44;;;17.77;70.15
67109;BME280;54027;50.786;7.058;2022-09-06T04:19:34;101136.72;;;17.70;70.29
67109;BME280;54027;50.786;7.058;2022-09-06T04:21:59;101138.31;;;17.74;70.24
67109;BME280;54027;50.786;7.058;2022-09-06T04:24:24;101135.69;;;17.74;70.41
67109;BME280;54027;50.786;7.058;2022-09-06T04:26:50;101137.50;;;17.72;70.27
67109;BME280;54027;50.786;7.058;2022-09-06T04:29:15;101136.78;;;17.68;70.10
67109;BME280;54027;50.786;7.058;2022-09-06T04:31:40;101143.88;;;17.66;70.16
67109;BME280;54027;50.786;7.058;2022-09-06T04:34:05;101152.63;;;17.67;70.31
67109;BME280;54027;50.786;7.058;2022-09-06T04:36:31;101156.13;;;17.67;70.34
67109;BME280;54027;50.786;7.058;2022-09-06T04:38:56;101157.94;;;17.65;70.31
67109;BME280;54027;50.786;7.058;2022-09-06T04:41:21;101160.56;;;17.65;70.31
67109;BME280;54027;50.786;7.058;2022-09-06T04:43:47;101153.81;;;17.59;70.39
67109;BME280;54027;50.786;7.058;2022-09-06T04:48:41;101151.97;;;17.62;70.54
67109;BME280;54027;50.786;7.058;2022-09-06T04:51:06;101145.59;;;17.67;69.99
67109;BME280;54027;50.786;7.058;2022-09-06T04:53:31;101143.16;;;17.63;70.22
67109;BME280;54027;50.786;7.058;2022-09-06T04:55:57;101139.09;;;17.55;70.56
67109;BME280;54027;50.786;7.058;2022-09-06T04:58:22;101143.41;;;17.56;70.55
67109;BME280;54027;50.786;7.058;2022-09-06T05:00:48;101147.00;;;17.54;69.76
67109;BME280;54027;50.786;7.058;2022-09-06T05:03:13;101153.81;;;17.59;69.73
67109;BME280;54027;50.786;7.058;2022-09-06T05:05:38;101148.50;;;17.61;69.46
67109;BME280;54027;50.786;7.058;2022-09-06T05:08:03;101159.25;;;17.55;69.46
67109;BME280;54027;50.786;7.058;2022-09-06T05:10:29;101148.72;;;17.55;69.53
67109;BME280;54027;50.786;7.058;2022-09-06T05:12:54;101159.25;;;17.55;69.76
67109;BME280;54027;50.786;7.058;2022-09-06T05:15:20;101158.38;;;17.54;70.09
67109;BME280;54027;50.786;7.058;2022-09-06T05:17:46;101166.53;;;17.48;69.92
67109;BME280;54027;50.786;7.058;2022-09-06T05:20:11;101169.16;;;17.48;69.93
67109;BME280;54027;50.786;7.058;2022-09-06T05:22:37;101167.31;;;17.50;69.88
67109;BME280;54027;50.786;7.058;2022-09-06T05:25:03;101159.50;;;17.49;69.88
67109;BME280;54027;50.786;7.058;2022-09-06T05:27:28;101160.09;;;17.55;69.77
67109;BME280;54027;50.786;7.058;2022-09-06T05:29:53;101169.88;;;17.52;70.03
67109;BME280;54027;50.786;7.058;2022-09-06T05:32:19;101171.50;;;17.54;70.37
67109;BME280;54027;50.786;7.058;2022-09-06T05:34:44;101168.03;;;17.54;70.43
67109;BME280;54027;50.786;7.058;2022-09-06T05:37:09;101169.75;;;17.55;70.20
67109;BME280;54027;50.786;7.058;2022-09-06T05:39:34;101163.50;;;17.57;70.03
67109;BME280;54027;50.786;7.058;2022-09-06T05:42:00;101166.22;;;17.56;70.28
67109;BME280;54027;50.786;7.058;2022-09-06T05:44:30;101163.63;;;17.54;69.59
67109;BME280;54027;50.786;7.058;2022-09-06T05:46:56;101164.41;;;17.56;70.28
67109;BME280;54027;50.786;7.058;2022-09-06T05:49:21;101170.53;;;17.57;70.50
67109;BME280;54027;50.786;7.058;2022-09-06T05:51:49;101167.00;;;17.58;70.38
67109;BME280;54027;50.786;7.058;2022-09-06T05:54:14;101165.00;;;17.65;70.29
67109;BME280;54027;50.786;7.058;2022-09-06T05:56:39;101163.19;;;17.65;70.47
67109;BME280;54027;50.786;7.058;2022-09-06T05:59:04;101161.41;;;17.66;70.93
67109;BME280;54027;50.786;7.058;2022-09-06T06:01:30;101159.78;;;17.63;71.09
67109;BME280;54027;50.786;7.058;2022-09-06T06:06:21;101162.28;;;17.66;71.33
67109;BME280;54027;50.786;7.058;2022-09-06T06:08:47;101171.78;;;17.69;71.41
67109;BME280;54027;50.786;7.058;2022-09-06T06:11:12;101162.91;;;17.71;71.21
67109;BME280;54027;50.786;7.058;2022-09-06T06:13:38;101170.66;;;17.74;70.89
67109;BME280;54027;50.786;7.058;2022-09-06T06:16:07;101167.06;;;17.77;71.17
67109;BME280;54027;50.786;7.058;2022-09-06T06:18:33;101168.84;;;17.76;70.80
67109;BME280;54027;50.786;7.058;2022-09-06T06:23:33;101173.25;;;17.76;71.23
67109;BME280;54027;50.786;7.058;2022-09-06T06:25:58;101172.25;;;17.78;70.94
67109;BME280;54027;50.786;7.058;2022-09-06T06:28:23;101172.06;;;17.83;70.90
67109;BME280;54027;50.786;7.058;2022-09-06T06:30:48;101181.63;;;17.84;70.86
67109;BME280;54027;50.786;7.058;2022-09-06T06:33:14;101182.41;;;17.86;70.37
67109;BME280;54027;50.786;7.058;2022-09-06T06:35:54;101176.09;;;17.90;70.38
67109;BME280;54027;50.786;7.058;2022-09-06T06:38:20;101174.38;;;17.89;70.39
67109;BME280;54027;50.786;7.058;2022-09-06T06:40:45;101176.88;;;17.92;70.14
67109;BME280;54027;50.786;7.058;2022-09-06T06:43:10;101171.63;;;17.92;70.50
67109;BME280;54027;50.786;7.058;2022-09-06T06:45:35;101174.09;;;17.95;70.45
67109;BME280;54027;50.786;7.058;2022-09-06T06:48:01;101172.44;;;17.94;70.84
67109;BME280;54027;50.786;7.058;2022-09-06T06:50:26;101169.56;;;17.98;70.53
67109;BME280;54027;50.786;7.058;2022-09-06T06:52:51;101173.16;;;17.97;70.52
67109;BME280;54027;50.786;7.058;2022-09-06T06:55:18;101169.38;;;18.03;69.30
67109;BME280;54027;50.786;7.058;2022-09-06T06:57:43;101171.94;;;18.04;69.51
67109;BME280;54027;50.786;7.058;2022-09-06T07:00:09;101176.28;;;18.05;69.17
67109;BME280;54027;50.786;7.058;2022-09-06T07:02:34;101171.78;;;18.07;69.04
67109;BME280;54027;50.786;7.058;2022-09-06T07:05:00;101176.13;;;18.08;69.42
67109;BME280;54027;50.786;7.058;2022-09-06T07:07:25;101175.19;;;18.09;68.71
67109;BME280;54027;50.786;7.058;2022-09-06T07:09:50;101174.91;;;18.15;68.16
67109;BME280;54027;50.786;7.058;2022-09-06T07:12:16;101184.47;;;18.18;67.67
67109;BME280;54027;50.786;7.058;2022-09-06T07:14:41;101171.22;;;18.20;67.54
67109;BME280;54027;50.786;7.058;2022-09-06T07:17:07;101165.97;;;18.20;67.08
67109;BME280;54027;50.786;7.058;2022-09-06T07:19:32;101166.59;;;18.25;67.03
67109;BME280;54027;50.786;7.058;2022-09-06T07:21:57;101165.78;;;18.24;67.36
67109;BME280;54027;50.786;7.058;2022-09-06T07:24:23;101164.84;;;18.25;67.53
67109;BME280;54027;50.786;7.058;2022-09-06T07:26:48;101156.94;;;18.25;67.58
67109;BME280;54027;50.786;7.058;2022-09-06T07:29:13;101157.75;;;18.27;67.71
67109;BME280;54027;50.786;7.058;2022-09-06T07:31:38;101151.53;;;18.28;67.47
67109;BME280;54027;50.786;7.058;2022-09-06T07:34:06;101162.06;;;18.28;67.99
67109;BME280;54027;50.786;7.058;2022-09-06T07:36:32;101160.22;;;18.30;67.73
67109;BME280;54027;50.786;7.058;2022-09-06T07:38:57;101152.09;;;18.35;67.67
67109;BME280;54027;50.786;7.058;2022-09-06T07:41:22;101152.19;;;18.33;67.35
67109;BME280;54027;50.786;7.058;2022-09-06T07:43:51;101151.88;;;18.39;66.24
67109;BME280;54027;50.786;7.058;2022-09-06T07:46:18;101157.84;;;18.43;66.50
67109;BME280;54027;50.786;7.058;2022-09-06T07:48:44;101151.69;;;18.44;66.21
67109;BME280;54027;50.786;7.058;2022-09-06T07:51:10;101149.00;;;18.45;65.97
67109;BME280;54027;50.786;7.058;2022-09-06T07:53:37;101150.75;;;18.45;66.01
67109;BME280;54027;50.786;7.058;2022-09-06T07:56:03;101151.47;;;18.48;65.82
67109;BME280;54027;50.786;7.058;2022-09-06T07:58:29;101152.13;;;18.53;65.20
67109;BME280;54027;50.786;7.058;2022-09-06T08:03:39;101154.81;;;18.52;65.76
67109;BME280;54027;50.786;7.058;2022-09-06T08:06:04;101150.38;;;18.54;65.54
67109;BME280;54027;50.786;7.058;2022-09-06T08:08:29;101149.41;;;18.55;65.13
67109;BME280;54027;50.786;7.058;2022-09-06T08:10:55;101147.44;;;18.60;65.37
67109;BME280;54027;50.786;7.058;2022-09-06T08:13:20;101144.94;;;18.57;65.23
67109;BME280;54027;50.786;7.058;2022-09-06T08:15:45;101140.47;;;18.59;65.27
67109;BME280;54027;50.786;7.058;2022-09-06T08:18:10;101139.53;;;18.60;64.86
67109;BME280;54027;50.786;7.058;2022-09-06T08:20:36;101146.44;;;18.62;64.76
67109;BME280;54027;50.786;7.058;2022-09-06T08:23:01;101146.44;;;18.62;65.13
67109;BME280;54027;50.786;7.058;2022-09-06T08:25:26;101144.81;;;18.60;66.08
67109;BME280;54027;50.786;7.058;2022-09-06T08:27:52;101143.09;;;18.59;66.05
67109;BME280;54027;50.786;7.058;2022-09-06T08:30:18;101151.03;;;18.57;65.85
67109;BME280;54027;50.786;7.058;2022-09-06T08:32:44;101141.63;;;18.70;64.32
67109;BME280;54027;50.786;7.058;2022-09-06T08:35:09;101142.50;;;18.71;64.21
67109;BME280;54027;50.786;7.058;2022-09-06T08:37:34;101134.50;;;18.73;64.16
67109;BME280;54027;50.786;7.058;2022-09-06T08:40:00;101135.97;;;18.61;65.57
67109;BME280;54027;50.786;7.058;2022-09-06T08:42:25;101140.06;;;18.66;65.51
67109;BME280;54027;50.786;7.058;2022-09-06T08:44:51;101142.72;;;18.66;66.13
67109;BME280;54027;50.786;7.058;2022-09-06T08:47:17;101140.00;;;18.68;64.60
67109;BME280;54027;50.786;7.058;2022-09-06T08:49:44;101138.25;;;18.68;64.40
67109;BME280;54027;50.786;7.058;2022-09-06T08:54:56;101128.53;;;18.69;64.80
67109;BME280;54027;50.786;7.058;2022-09-06T08:57:36;101130.19;;;18.72;65.32
67109;BME280;54027;50.786;7.058;2022-09-06T09:00:08;101119.59;;;18.73;64.32
67109;BME280;54027;50.786;7.058;2022-09-06T09:02:41;101116.09;;;18.73;64.35
67109;BME280;54027;50.786;7.058;2022-09-06T09:05:06;101112.91;;;18.66;65.31
67109;BME280;54027;50.786;7.058;2022-09-06T09:10:28;101109.16;;;18.72;65.03
67109;BME280;54027;50.786;7.058;2022-09-06T09:12:53;101114.47;;;18.70;65.58
67109;BME280;54027;50.786;7.058;2022-09-06T09:15:19;101108.91;;;18.76;64.79
67109;BME280;54027;50.786;7.058;2022-09-06T09:17:48;101108.13;;;18.74;63.94
67109;BME280;54027;50.786;7.058;2022-09-06T09:20:14;101114.47;;;18.70;64.57
67109;BME280;54027;50.786;7.058;2022-09-06T09:22:40;101110.13;;;18.69;65.08
67109;BME280;54027;50.786;7.058;2022-09-06T09:25:06;101105.81;;;18.85;64.08
67109;BME280;54027;50.786;7.058;2022-09-06T09:27:32;101109.75;;;18.77;64.85
67109;BME280;54027;50.786;7.058;2022-09-06T09:30:01;101109.53;;;18.81;64.50
67109;BME280;54027;50.786;7.058;2022-09-06T09:32:31;101102.56;;;18.80;64.61
67109;BME280;54027;50.786;7.058;2022-09-06T09:37:40;101089.78;;;18.90;64.04
67109;BME280;54027;50.786;7.058;2022-09-06T09:40:07;101090.03;;;18.85;64.34
67109;BME280;54027;50.786;7.058;2022-09-06T09:42:36;101077.31;;;18.76;64.89
67109;BME280;54027;50.786;7.058;2022-09-06T09:45:44;101076.00;;;18.85;64.42
67109;BME280;54027;50.786;7.058;2022-09-06T09:47:51;101071.59;;;18.85;63.96
67109;BME280;54027;50.786;7.058;2022-09-06T09:50:34;101070.69;;;18.86;63.94
67109;BME280;54027;50.786;7.058;2022-09-06T09:53:10;101064.16;;;18.93;64.06
67109;BME280;54027;50.786;7.058;2022-09-06T09:55:37;101064.94;;;18.78;64.77
67109;BME280;54027;50.786;7.058;2022-09-06T09:58:04;101065.06;;;18.75;64.75
67109;BME280;54027;50.786;7.058;2022-09-06T10:00:34;101068.34;;;18.80;64.75
67109;BME280;54027;50.786;7.058;2022-09-06T10:03:01;101073.16;;;18.89;64.39
67109;BME280;54027;50.786;7.058;2022-09-06T10:05:35;101064.63;;;18.84;64.85
67109;BME280;54027;50.786;7.058;2022-09-06T10:08:00;101064.09;;;18.78;64.71
67109;BME280;54027;50.786;7.058;2022-09-06T10:10:26;101051.09;;;18.75;64.68
67109;BME280;54027;50.786;7.058;2022-09-06T10:15:37;101059.19;;;18.87;64.49
67109;BME280;54027;50.786;7.058;2022-09-06T10:18:03;101052.75;;;18.93;64.01
67109;BME280;54027;50.786;7.058;2022-09-06T10:20:41;101053.47;;;18.96;63.74
67109;BME280;54027;50.786;7.058;2022-09-06T10:25:45;101052.75;;;19.27;61.27
67109;BME280;54027;50.786;7.058;2022-09-06T10:28:21;101052.94;;;19.07;62.91
67109;BME280;54027;50.786;7.058;2022-09-06T10:33:25;101055.75;;;18.87;64.62
67109;BME280;54027;50.786;7.058;2022-09-06T10:35:54;101057.59;;;18.85;64.55
67109;BME280;54027;50.786;7.058;2022-09-06T10:43:53;101044.50;;;18.83;64.78
67109;BME280;54027;50.786;7.058;2022-09-06T10:46:23;101030.94;;;18.91;64.26
67109;BME280;54027;50.786;7.058;2022-09-06T10:48:49;101029.94;;;18.93;64.13
67109;BME280;54027;50.786;7.058;2022-09-06T10:56:28;101020.41;;;18.91;64.33
67109;BME280;54027;50.786;7.058;2022-09-06T10:58:58;101017.72;;;18.92;64.36
67109;BME280;54027;50.786;7.058;2022-09-06T11:03:58;101014.69;;;18.83;64.35
67109;BME280;54027;50.786;7.058;2022-09-06T11:06:24;101019.81;;;18.86;64.56
67109;BME280;54027;50.786;7.058;2022-09-06T11:09:02;101015.56;;;18.83;64.60
67109;BME280;54027;50.786;7.058;2022-09-06T11:14:00;101000.78;;;19.31;62.07
67109;BME280;54027;50.786;7.058;2022-09-06T11:16:29;101002.59;;;18.96;64.14
67109;BME280;54027;50.786;7.058;2022-09-06T11:23:51;100989.13;;;19.35;61.12
67109;BME280;54027;50.786;7.058;2022-09-06T11:28:56;100993.00;;;18.95;64.05
67109;BME280;54027;50.786;7.058;2022-09-06T11:33:48;100988.59;;;18.95;64.42
67109;BME280;54027;50.786;7.058;2022-09-06T11:38:56;100984.97;;;18.98;64.28
67109;BME280;54027;50.786;7.058;2022-09-06T11:41:22;100988.81;;;18.91;64.19
67109;BME280;54027;50.786;7.058;2022-09-06T11:43:52;100992.22;;;19.10;63.56
67109;BME280;54027;50.786;7.058;2022-09-06T11:48:59;100995.66;;;18.95;64.26
67109;BME280;54027;50.786;7.058;2022-09-06T11:51:31;100997.09;;;19.00;64.10
67109;BME280;54027;50.786;7.058;2022-09-06T11:59:26;100964.66;;;19.33;62.30
67109;BME280;54027;50.786;7.058;2022-09-06T12:01:39;100974.81;;;19.07;63.89
67109;BME280;54027;50.786;7.058;2022-09-06T12:04:05;100971.53;;;19.02;63.85
67109;BME280;54027;50.786;7.058;2022-09-06T12:06:38;100970.00;;;18.98;64.15
67109;BME280;54027;50.786;7.058;2022-09-06T12:11:48;100974.50;;;18.96;64.25
67109;BME280;54027;50.786;7.058;2022-09-06T12:24:57;100964.22;;;19.24;63.05
67109;BME280;54027;50.786;7.058;2022-09-06T12:29:53;100969.84;;;19.01;64.20
67109;BME280;54027;50.786;7.058;2022-09-06T12:32:21;100957.50;;;19.19;63.46
67109;BME280;54027;50.786;7.058;2022-09-06T12:34:48;100959.97;;;19.22;62.86
67109;BME280;54027;50.786;7.058;2022-09-06T12:37:13;100951.59;;;19.14;63.56
67109;BME280;54027;50.786;7.058;2022-09-06T12:39:39;100948.38;;;19.09;63.59
67109;BME280;54027;50.786;7.058;2022-09-06T12:42:10;100949.22;;;19.09;63.63
67109;BME280;54027;50.786;7.058;2022-09-06T12:44:42;100943.97;;;19.09;63.70
67109;BME280;54027;50.786;7.058;2022-09-06T12:47:17;100942.25;;;19.08;63.70
67109;BME280;54027;50.786;7.058;2022-09-06T12:49:44;100946.44;;;19.12;63.83
67109;BME280;54027;50.786;7.058;2022-09-06T12:52:11;100949.06;;;19.45;62.85
67109;BME280;54027;50.786;7.058;2022-09-06T12:54:41;100946.34;;;19.14;63.53
67109;BME280;54027;50.786;7.058;2022-09-06T12:57:19;100946.16;;;19.17;63.73
67109;BME280;54027;50.786;7.058;2022-09-06T12:59:46;100949.63;;;19.35;63.69
67109;BME280;54027;50.786;7.058;2022-09-06T13:02:12;100943.47;;;19.18;63.59
67109;BME280;54027;50.786;7.058;2022-09-06T13:04:40;100944.38;;;19.17;63.77
67109;BME280;54027;50.786;7.058;2022-09-06T13:07:08;100940.66;;;19.21;63.45
67109;BME280;54027;50.786;7.058;2022-09-06T13:09:34;100947.88;;;19.18;63.81
67109;BME280;54027;50.786;7.058;2022-09-06T13:12:05;100946.78;;;19.22;64.94
67109;BME280;54027;50.786;7.058;2022-09-06T13:14:32;100944.47;;;19.33;63.61
67109;BME280;54027;50.786;7.058;2022-09-06T13:16:58;100940.50;;;19.24;63.89
67109;BME280;54027;50.786;7.058;2022-09-06T13:21:53;100941.25;;;20.20;56.17
67109;BME280;54027;50.786;7.058;2022-09-06T13:24:24;100938.50;;;19.92;59.08
67109;BME280;54027;50.786;7.058;2022-09-06T13:26:49;100928.31;;;19.55;62.58
67109;BME280;54027;50.786;7.058;2022-09-06T13:32:14;100934.16;;;19.44;62.77
67109;BME280;54027;50.786;7.058;2022-09-06T13:34:33;100933.75;;;19.36;63.00
67109;BME280;54027;50.786;7.058;2022-09-06T13:37:03;100932.31;;;19.31;63.19
67109;BME280;54027;50.786;7.058;2022-09-06T13:39:30;100934.94;;;19.31;63.01
67109;BME280;54027;50.786;7.058;2022-09-06T13:41:58;100934.09;;;19.30;63.05
67109;BME280;54027;50.786;7.058;2022-09-06T13:44:31;100934.09;;;19.30;63.48
67109;BME280;54027;50.786;7.058;2022-09-06T13:46:57;100929.88;;;19.26;63.20
67109;BME280;54027;50.786;7.058;2022-09-06T13:49:23;100936.84;;;19.27;63.31
67109;BME280;54027;50.786;7.058;2022-09-06T13:51:49;100935.38;;;19.39;62.82
67109;BME280;54027;50.786;7.058;2022-09-06T13:54:15;100933.34;;;19.26;63.36
67109;BME280;54027;50.786;7.058;2022-09-06T13:56:41;100928.47;;;19.36;62.90
67109;BME280;54027;50.786;7.058;2022-09-06T13:59:09;100928.47;;;19.67;60.17
67109;BME280;54027;50.786;7.058;2022-09-06T14:01:34;100927.13;;;19.60;62.02
67109;BME280;54027;50.786;7.058;2022-09-06T14:04:03;100918.78;;;19.68;61.32
67109;BME280;54027;50.786;7.058;2022-09-06T14:06:29;100918.28;;;19.61;62.28
67109;BME280;54027;50.786;7.058;2022-09-06T14:08:54;100919.47;;;19.40;62.73
67109;BME280;54027;50.786;7.058;2022-09-06T14:11:19;100915.47;;;19.33;62.96
67109;BME280;54027;50.786;7.058;2022-09-06T14:13:45;100918.34;;;19.29;62.92
67109;BME280;54027;50.786;7.058;2022-09-06T14:16:10;100917.34;;;19.31;62.96
67109;BME280;54027;50.786;7.058;2022-09-06T14:18:36;100904.50;;;19.41;62.76
67109;BME280;54027;50.786;7.058;2022-09-06T14:21:02;100901.63;;;19.45;61.13
67109;BME280;54027;50.786;7.058;2022-09-06T14:23:31;100898.44;;;19.70;60.81
67109;BME280;54027;50.786;7.058;2022-09-06T14:25:57;100898.38;;;19.56;61.95
67109;BME280;54027;50.786;7.058;2022-09-06T14:28:23;100888.84;;;20.44;51.03
67109;BME280;54027;50.786;7.058;2022-09-06T14:30:49;100885.09;;;21.33;48.61
67109;BME280;54027;50.786;7.058;2022-09-06T14:33:17;100894.44;;;20.82;53.01
67109;BME280;54027;50.786;7.058;2022-09-06T14:35:43;100896.31;;;20.52;55.45
67109;BME280;54027;50.786;7.058;2022-09-06T14:38:11;100892.72;;;20.09;58.19
67109;BME280;54027;50.786;7.058;2022-09-06T14:40:37;100886.47;;;19.80;59.86
67109;BME280;54027;50.786;7.058;2022-09-06T14:43:03;100885.44;;;19.83;59.59
67109;BME280;54027;50.786;7.058;2022-09-06T14:45:28;100874.31;;;19.62;61.33